createdAt,value
2017-07-27T00:00:22.223Z,0
2017-07-27T00:01:22.859Z,0
2017-07-27T00:02:23.495Z,0
2017-07-27T00:03:24.129Z,0
2017-07-27T00:04:24.769Z,0
2017-07-27T00:05:25.706Z,0
2017-07-27T00:06:26.344Z,0
2017-07-27T00:07:26.979Z,0
2017-07-27T00:08:27.618Z,0
2017-07-27T00:09:28.250Z,0
2017-07-27T00:10:28.888Z,0
2017-07-27T00:11:29.520Z,0
2017-07-27T00:12:30.159Z,0
2017-07-27T00:13:30.791Z,0
2017-07-27T00:14:31.583Z,0
2017-07-27T00:15:32.225Z,0
2017-07-27T00:16:32.856Z,0
2017-07-27T00:17:33.546Z,0
2017-07-27T00:18:34.178Z,0
2017-07-27T00:19:34.825Z,0
2017-07-27T00:20:35.455Z,0
2017-07-27T00:21:36.089Z,0
2017-07-27T00:22:36.875Z,0
2017-07-27T00:23:37.510Z,0
2017-07-27T00:24:38.146Z,0
2017-07-27T00:25:38.783Z,0
2017-07-27T00:26:39.417Z,0
2017-07-27T00:27:40.052Z,0
2017-07-27T00:28:40.694Z,0
2017-07-27T00:29:41.331Z,0
2017-07-27T00:30:42.112Z,0
2017-07-27T00:31:42.752Z,0
2017-07-27T00:32:43.389Z,0
2017-07-27T00:33:44.025Z,0
2017-07-27T00:34:44.665Z,0
2017-07-27T00:35:45.295Z,0
2017-07-27T00:36:45.933Z,0
2017-07-27T00:37:46.574Z,0
2017-07-27T00:38:47.356Z,0
2017-07-27T00:39:47.992Z,0
2017-07-27T00:40:48.626Z,0
2017-07-27T00:41:49.267Z,0
2017-07-27T00:42:49.901Z,0
2017-07-27T00:43:50.534Z,0
2017-07-27T00:44:51.170Z,0
2017-07-27T00:45:51.805Z,0
2017-07-27T00:46:52.446Z,0
2017-07-27T00:47:53.278Z,0
2017-07-27T00:48:53.914Z,0
2017-07-27T00:49:54.549Z,0
2017-07-27T00:50:55.191Z,0
2017-07-27T00:51:55.823Z,0
2017-07-27T00:52:56.463Z,0
2017-07-27T00:53:57.102Z,0
2017-07-27T00:54:57.739Z,0
2017-07-27T00:55:58.570Z,0
2017-07-27T00:56:59.206Z,0
2017-07-27T00:57:59.846Z,0
2017-07-27T00:59:00.485Z,0
2017-07-27T01:00:01.121Z,0
2017-07-27T01:01:01.754Z,0
2017-07-27T01:02:02.392Z,0
2017-07-27T01:03:03.043Z,0
2017-07-27T01:04:03.864Z,0
2017-07-27T01:05:04.498Z,24
2017-07-27T01:06:05.140Z,24
2017-07-27T01:07:05.776Z,24
2017-07-27T01:08:06.412Z,0
2017-07-27T01:09:07.051Z,0
2017-07-27T01:10:07.688Z,0
2017-07-27T01:11:08.325Z,0
2017-07-27T01:12:09.164Z,0
2017-07-27T01:13:09.800Z,0
2017-07-27T01:14:10.430Z,0
2017-07-27T01:15:11.065Z,0
2017-07-27T01:16:11.708Z,0
2017-07-27T01:17:12.343Z,0
2017-07-27T01:18:12.975Z,0
2017-07-27T01:19:13.618Z,0
2017-07-27T01:20:14.453Z,0
2017-07-27T01:21:15.092Z,0
2017-07-27T01:22:15.724Z,0
2017-07-27T01:23:16.364Z,0
2017-07-27T01:24:17.002Z,0
2017-07-27T01:25:17.634Z,0
2017-07-27T01:26:18.272Z,0
2017-07-27T01:27:18.905Z,0
2017-07-27T01:28:19.546Z,0
2017-07-27T01:29:20.380Z,0
2017-07-27T01:30:21.017Z,0
2017-07-27T01:31:21.656Z,0
2017-07-27T01:32:22.290Z,0
2017-07-27T01:33:22.924Z,0
2017-07-27T01:34:23.564Z,0
2017-07-27T01:35:24.197Z,0
2017-07-27T01:36:24.836Z,0
2017-07-27T01:37:25.668Z,0
2017-07-27T01:38:26.254Z,0
2017-07-27T01:39:26.888Z,0
2017-07-27T01:40:27.522Z,0
2017-07-27T01:41:28.169Z,0
2017-07-27T01:42:28.805Z,0
2017-07-27T01:43:29.447Z,0
2017-07-27T01:44:30.078Z,0
2017-07-27T01:45:30.859Z,0
2017-07-27T01:46:31.498Z,0
2017-07-27T01:47:32.137Z,0
2017-07-27T01:48:32.770Z,0
2017-07-27T01:49:33.404Z,0
2017-07-27T01:50:34.050Z,0
2017-07-27T01:51:34.683Z,0
2017-07-27T01:52:35.323Z,0
2017-07-27T01:53:36.154Z,0
2017-07-27T01:54:36.788Z,0
2017-07-27T01:55:37.427Z,0
2017-07-27T01:56:38.057Z,0
2017-07-27T01:57:38.693Z,0
2017-07-27T01:58:39.328Z,0
2017-07-27T01:59:39.965Z,0
2017-07-27T02:00:40.605Z,0
2017-07-27T02:01:41.238Z,0
2017-07-27T02:02:42.187Z,0
2017-07-27T02:03:42.813Z,0
2017-07-27T02:04:43.445Z,0
2017-07-27T02:05:44.085Z,0
2017-07-27T02:06:44.719Z,0
2017-07-27T02:07:45.359Z,0
2017-07-27T02:08:45.991Z,0
2017-07-27T02:09:46.639Z,0
2017-07-27T02:10:47.477Z,0
2017-07-27T02:11:48.106Z,0
2017-07-27T02:12:48.753Z,0
2017-07-27T02:13:49.385Z,0
2017-07-27T02:14:50.027Z,0
2017-07-27T02:15:50.663Z,0
2017-07-27T02:16:51.293Z,0
2017-07-27T02:17:51.930Z,0
2017-07-27T02:18:52.763Z,0
2017-07-27T02:19:53.406Z,0
2017-07-27T02:20:54.039Z,0
2017-07-27T02:21:54.679Z,0
2017-07-27T02:22:55.311Z,0
2017-07-27T02:23:55.948Z,0
2017-07-27T02:24:56.586Z,0
2017-07-27T02:25:57.220Z,0
2017-07-27T02:26:58.009Z,0
2017-07-27T02:27:58.640Z,0
2017-07-27T02:28:59.281Z,0
2017-07-27T02:29:59.919Z,0
2017-07-27T02:31:00.553Z,0
2017-07-27T02:32:01.187Z,0
2017-07-27T02:33:01.827Z,0
2017-07-27T02:34:02.465Z,0
2017-07-27T02:35:03.295Z,0
2017-07-27T02:36:03.935Z,0
2017-07-27T02:37:04.575Z,0
2017-07-27T02:38:05.206Z,0
2017-07-27T02:39:05.791Z,0
2017-07-27T02:40:06.429Z,0
2017-07-27T02:41:07.063Z,0
2017-07-27T02:42:07.704Z,0
2017-07-27T02:43:08.336Z,0
2017-07-27T02:44:09.172Z,0
2017-07-27T02:45:09.806Z,0
2017-07-27T02:46:10.448Z,0
2017-07-27T02:47:11.091Z,0
2017-07-27T02:48:11.727Z,0
2017-07-27T02:49:12.357Z,0
2017-07-27T02:50:12.998Z,0
2017-07-27T02:51:13.637Z,0
2017-07-27T02:52:14.468Z,0
2017-07-27T02:53:15.104Z,0
2017-07-27T02:54:15.737Z,0
2017-07-27T02:55:16.389Z,0
2017-07-27T02:56:17.022Z,0
2017-07-27T02:57:17.658Z,0
2017-07-27T02:58:18.290Z,0
2017-07-27T02:59:18.925Z,0
2017-07-27T03:00:19.721Z,0
2017-07-27T03:01:20.351Z,0
2017-07-27T03:02:20.985Z,0
2017-07-27T03:03:21.623Z,0
2017-07-27T03:04:22.260Z,0
2017-07-27T03:05:22.899Z,0
2017-07-27T03:06:23.532Z,0
2017-07-27T03:07:24.168Z,0
2017-07-27T03:08:25.001Z,0
2017-07-27T03:09:25.638Z,0
2017-07-27T03:10:26.278Z,0
2017-07-27T03:11:26.910Z,0
2017-07-27T03:12:27.543Z,0
2017-07-27T03:13:28.177Z,0
2017-07-27T03:14:28.818Z,0
2017-07-27T03:15:29.455Z,0
2017-07-27T03:16:30.087Z,0
2017-07-27T03:17:30.884Z,0
2017-07-27T03:18:31.520Z,0
2017-07-27T03:19:32.158Z,0
2017-07-27T03:20:32.793Z,0
2017-07-27T03:21:33.427Z,0
2017-07-27T03:22:34.069Z,0
2017-07-27T03:23:34.705Z,0
2017-07-27T03:24:35.339Z,0
2017-07-27T03:25:36.425Z,0
2017-07-27T03:26:37.062Z,0
2017-07-27T03:27:37.695Z,0
2017-07-27T03:28:38.337Z,0
2017-07-27T03:29:38.974Z,0
2017-07-27T03:30:39.613Z,0
2017-07-27T03:31:40.243Z,0
2017-07-27T03:32:40.885Z,0
2017-07-27T03:33:41.716Z,0
2017-07-27T03:34:42.355Z,0
2017-07-27T03:35:42.989Z,0
2017-07-27T03:36:43.626Z,0
2017-07-27T03:37:44.269Z,0
2017-07-27T03:38:44.902Z,0
2017-07-27T03:39:45.536Z,0
2017-07-27T03:40:46.176Z,0
2017-07-27T03:41:46.965Z,0
2017-07-27T03:42:47.596Z,0
2017-07-27T03:43:48.246Z,0
2017-07-27T03:44:48.870Z,0
2017-07-27T03:45:49.505Z,0
2017-07-27T03:46:50.146Z,0
2017-07-27T03:47:50.779Z,0
2017-07-27T03:48:51.415Z,0
2017-07-27T03:49:52.050Z,0
2017-07-27T03:50:52.897Z,0
2017-07-27T03:51:53.532Z,0
2017-07-27T03:52:54.162Z,0
2017-07-27T03:53:54.804Z,0
2017-07-27T03:54:55.441Z,0
2017-07-27T03:55:56.071Z,0
2017-07-27T03:56:56.707Z,0
2017-07-27T03:57:57.342Z,0
2017-07-27T03:58:58.187Z,0
2017-07-27T03:59:58.816Z,0
2017-07-27T04:00:59.462Z,0
2017-07-27T04:02:00.099Z,0
2017-07-27T04:03:00.735Z,0
2017-07-27T04:04:01.365Z,0
2017-07-27T04:05:02.003Z,0
2017-07-27T04:06:02.640Z,0
2017-07-27T04:07:03.425Z,0
2017-07-27T04:08:04.057Z,0
2017-07-27T04:09:04.692Z,0
2017-07-27T04:10:05.328Z,0
2017-07-27T04:11:05.964Z,0
2017-07-27T04:12:06.604Z,0
2017-07-27T04:13:07.242Z,0
2017-07-27T04:14:07.880Z,0
2017-07-27T04:15:08.718Z,0
2017-07-27T04:16:09.356Z,0
2017-07-27T04:17:09.988Z,0
2017-07-27T04:18:10.624Z,0
2017-07-27T04:19:11.264Z,0
2017-07-27T04:20:11.900Z,0
2017-07-27T04:21:12.538Z,0
2017-07-27T04:22:13.169Z,0
2017-07-27T04:23:14.053Z,0
2017-07-27T04:24:14.689Z,0
2017-07-27T04:25:15.325Z,0
2017-07-27T04:26:15.958Z,0
2017-07-27T04:27:16.599Z,0
2017-07-27T04:28:17.238Z,0
2017-07-27T04:29:17.871Z,0
2017-07-27T04:30:18.511Z,0
2017-07-27T04:31:19.149Z,0
2017-07-27T04:32:19.981Z,0
2017-07-27T04:33:20.616Z,0
2017-07-27T04:34:21.250Z,0
2017-07-27T04:35:21.887Z,0
2017-07-27T04:36:22.527Z,0
2017-07-27T04:37:23.160Z,0
2017-07-27T04:38:23.846Z,0
2017-07-27T04:39:24.479Z,0
2017-07-27T04:40:25.324Z,0
2017-07-27T04:41:26.011Z,0
2017-07-27T04:42:26.643Z,0
2017-07-27T04:43:27.278Z,0
2017-07-27T04:44:27.919Z,0
2017-07-27T04:45:28.555Z,0
2017-07-27T04:46:29.192Z,0
2017-07-27T04:47:29.826Z,0
2017-07-27T04:48:30.666Z,0
2017-07-27T04:49:31.297Z,0
2017-07-27T04:50:31.940Z,0
2017-07-27T04:51:32.570Z,0
2017-07-27T04:52:33.206Z,0
2017-07-27T04:53:33.842Z,0
2017-07-27T04:54:34.478Z,0
2017-07-27T04:55:35.133Z,0
2017-07-27T04:56:35.959Z,0
2017-07-27T04:57:36.596Z,0
2017-07-27T04:58:37.239Z,0
2017-07-27T04:59:37.873Z,0
2017-07-27T05:00:38.504Z,0
2017-07-27T05:01:39.139Z,0
2017-07-27T05:02:39.773Z,0
2017-07-27T05:03:40.419Z,0
2017-07-27T05:04:41.053Z,0
2017-07-27T05:05:41.941Z,0
2017-07-27T05:06:42.577Z,0
2017-07-27T05:07:43.215Z,0
2017-07-27T05:08:43.846Z,0
2017-07-27T05:09:44.479Z,0
2017-07-27T05:10:45.119Z,0
2017-07-27T05:11:45.751Z,0
2017-07-27T05:12:46.389Z,0
2017-07-27T05:13:47.172Z,0
2017-07-27T05:14:47.807Z,0
2017-07-27T05:15:48.453Z,0
2017-07-27T05:16:49.137Z,0
2017-07-27T05:17:49.772Z,0
2017-07-27T05:18:50.409Z,0
2017-07-27T05:19:51.043Z,0
2017-07-27T05:20:51.688Z,0
2017-07-27T05:21:52.619Z,0
2017-07-27T05:22:53.253Z,0
2017-07-27T05:23:53.900Z,0
2017-07-27T05:24:54.535Z,0
2017-07-27T05:25:55.172Z,0
2017-07-27T05:26:55.803Z,0
2017-07-27T05:27:56.439Z,0
2017-07-27T05:28:57.075Z,0
2017-07-27T05:29:57.913Z,0
2017-07-27T05:30:58.605Z,0
2017-07-27T05:31:59.244Z,0
2017-07-27T05:32:59.881Z,0
2017-07-27T05:34:00.513Z,0
2017-07-27T05:35:01.148Z,0
2017-07-27T05:36:01.790Z,0
2017-07-27T05:37:02.420Z,0
2017-07-27T05:38:03.356Z,0
2017-07-27T05:39:03.997Z,0
2017-07-27T05:40:04.630Z,0
2017-07-27T05:41:05.266Z,0
2017-07-27T05:42:05.900Z,0
2017-07-27T05:43:06.537Z,0
2017-07-27T05:44:07.175Z,0
2017-07-27T05:45:07.805Z,0
2017-07-27T05:46:08.445Z,0
2017-07-27T05:47:09.327Z,0
2017-07-27T05:48:09.961Z,0
2017-07-27T05:49:10.606Z,0
2017-07-27T05:50:11.247Z,0
2017-07-27T05:51:11.883Z,0
2017-07-27T05:52:12.520Z,0
2017-07-27T05:53:13.155Z,0
2017-07-27T05:54:13.787Z,0
2017-07-27T05:55:14.729Z,0
2017-07-27T05:56:15.356Z,0
2017-07-27T05:57:15.991Z,0
2017-07-27T05:58:16.678Z,0
2017-07-27T05:59:17.315Z,0
2017-07-27T06:00:17.946Z,0
2017-07-27T06:01:18.588Z,0
2017-07-27T06:02:19.228Z,0
2017-07-27T06:03:20.162Z,0
2017-07-27T06:04:20.793Z,0
2017-07-27T06:05:21.428Z,0
2017-07-27T06:06:22.069Z,0
2017-07-27T06:07:22.707Z,0
2017-07-27T06:08:23.344Z,0
2017-07-27T06:09:23.988Z,0
2017-07-27T06:10:24.626Z,0
2017-07-27T06:11:25.459Z,0
2017-07-27T06:12:26.090Z,0
2017-07-27T06:13:26.734Z,0
2017-07-27T06:14:27.364Z,0
2017-07-27T06:15:28.004Z,0
2017-07-27T06:16:28.637Z,0
2017-07-27T06:17:29.272Z,0
2017-07-27T06:18:29.909Z,0
2017-07-27T06:19:30.549Z,0
2017-07-27T06:20:31.336Z,0
2017-07-27T06:21:31.971Z,0
2017-07-27T06:22:32.628Z,0
2017-07-27T06:23:33.240Z,0
2017-07-27T06:24:33.875Z,0
2017-07-27T06:25:34.510Z,0
2017-07-27T06:26:35.149Z,0
2017-07-27T06:27:35.786Z,0
2017-07-27T06:28:36.625Z,0
2017-07-27T06:29:37.263Z,0
2017-07-27T06:30:37.900Z,0
2017-07-27T06:31:38.552Z,0
2017-07-27T06:32:39.176Z,0
2017-07-27T06:33:39.809Z,0
2017-07-27T06:34:40.443Z,0
2017-07-27T06:35:41.079Z,0
2017-07-27T06:36:41.913Z,0
2017-07-27T06:37:42.552Z,0
2017-07-27T06:38:43.186Z,0
2017-07-27T06:39:43.820Z,0
2017-07-27T06:40:44.455Z,0
2017-07-27T06:41:45.090Z,0
2017-07-27T06:42:45.729Z,0
2017-07-27T06:43:46.360Z,0
2017-07-27T06:44:47.196Z,0
2017-07-27T06:45:47.832Z,0
2017-07-27T06:46:48.466Z,0
2017-07-27T06:47:49.101Z,0
2017-07-27T06:48:49.746Z,0
2017-07-27T06:49:50.377Z,0
2017-07-27T06:50:51.008Z,0
2017-07-27T06:51:51.645Z,0
2017-07-27T06:52:52.390Z,0
2017-07-27T06:53:53.022Z,0
2017-07-27T06:54:53.661Z,0
2017-07-27T06:55:54.303Z,0
2017-07-27T06:56:54.933Z,0
2017-07-27T06:57:55.570Z,0
2017-07-27T06:58:56.203Z,0
2017-07-27T06:59:56.835Z,0
2017-07-27T07:00:57.472Z,0
2017-07-27T07:01:58.257Z,0
2017-07-27T07:02:58.893Z,0
2017-07-27T07:03:59.526Z,0
2017-07-27T07:05:00.161Z,0
2017-07-27T07:06:00.802Z,0
2017-07-27T07:07:01.439Z,0
2017-07-27T07:08:02.081Z,0
2017-07-27T07:09:02.716Z,0
2017-07-27T07:10:03.548Z,0
2017-07-27T07:11:04.187Z,0
2017-07-27T07:12:04.819Z,0
2017-07-27T07:13:05.459Z,0
2017-07-27T07:14:06.096Z,0
2017-07-27T07:15:06.731Z,0
2017-07-27T07:16:07.363Z,0
2017-07-27T07:17:07.999Z,0
2017-07-27T07:18:08.794Z,0
2017-07-27T07:19:09.423Z,0
2017-07-27T07:20:10.063Z,0
2017-07-27T07:21:10.696Z,0
2017-07-27T07:22:11.337Z,0
2017-07-27T07:23:11.971Z,0
2017-07-27T07:24:12.605Z,0
2017-07-27T07:25:13.241Z,0
2017-07-27T07:26:14.075Z,0
2017-07-27T07:27:14.711Z,0
2017-07-27T07:28:15.351Z,0
2017-07-27T07:29:15.983Z,0
2017-07-27T07:30:16.616Z,4
2017-07-27T07:31:17.252Z,4
2017-07-27T07:32:17.896Z,4
2017-07-27T07:33:18.532Z,4
2017-07-27T07:34:19.164Z,4
2017-07-27T07:35:19.955Z,0
2017-07-27T07:36:20.589Z,4
2017-07-27T07:37:21.227Z,4
2017-07-27T07:38:21.855Z,4
2017-07-27T07:39:22.491Z,4
2017-07-27T07:40:23.126Z,4
2017-07-27T07:41:23.766Z,4
2017-07-27T07:42:24.400Z,4
2017-07-27T07:43:25.242Z,4
2017-07-27T07:44:25.873Z,4
2017-07-27T07:45:26.514Z,4
2017-07-27T07:46:27.147Z,4
2017-07-27T07:47:27.779Z,4
2017-07-27T07:48:28.413Z,4
2017-07-27T07:49:29.049Z,4
2017-07-27T07:50:29.689Z,4
2017-07-27T07:51:30.524Z,4
2017-07-27T07:52:31.157Z,4
2017-07-27T07:53:31.800Z,4
2017-07-27T07:54:32.428Z,4
2017-07-27T07:55:33.064Z,0
2017-07-27T07:56:33.697Z,4
2017-07-27T07:57:34.338Z,0
2017-07-27T07:58:34.976Z,0
2017-07-27T07:59:36.010Z,0
2017-07-27T08:00:36.649Z,4
2017-07-27T08:01:37.282Z,0
2017-07-27T08:02:37.917Z,0
2017-07-27T08:03:38.551Z,0
2017-07-27T08:04:39.187Z,0
2017-07-27T08:05:39.821Z,0
2017-07-27T08:06:40.457Z,0
2017-07-27T08:07:41.297Z,0
2017-07-27T08:08:41.928Z,0
2017-07-27T08:09:42.566Z,4
2017-07-27T08:10:43.199Z,4
2017-07-27T08:11:43.840Z,4
2017-07-27T08:12:44.482Z,0
2017-07-27T08:13:45.109Z,4
2017-07-27T08:14:45.746Z,4
2017-07-27T08:15:46.379Z,4
2017-07-27T08:16:47.270Z,4
2017-07-27T08:17:47.909Z,4
2017-07-27T08:18:48.549Z,4
2017-07-27T08:19:49.185Z,4
2017-07-27T08:20:49.823Z,4
2017-07-27T08:21:50.459Z,4
2017-07-27T08:22:51.099Z,4
2017-07-27T08:23:51.730Z,4
2017-07-27T08:24:52.565Z,4
2017-07-27T08:25:53.207Z,4
2017-07-27T08:26:53.840Z,4
2017-07-27T08:27:54.474Z,28
2017-07-27T08:28:55.112Z,24
2017-07-27T08:29:55.752Z,24
2017-07-27T08:30:56.390Z,24
2017-07-27T08:31:57.024Z,24
2017-07-27T08:32:57.961Z,16
2017-07-27T08:33:58.597Z,16
2017-07-27T08:34:59.238Z,16
2017-07-27T08:35:59.876Z,20
2017-07-27T08:37:00.507Z,20
2017-07-27T08:38:01.151Z,20
2017-07-27T08:39:01.789Z,16
2017-07-27T08:40:02.428Z,20
2017-07-27T08:41:03.313Z,16
2017-07-27T08:42:03.957Z,16
2017-07-27T08:43:04.588Z,20
2017-07-27T08:44:05.226Z,16
2017-07-27T08:45:05.862Z,16
2017-07-27T08:46:06.500Z,20
2017-07-27T08:47:07.135Z,16
2017-07-27T08:48:07.770Z,16
2017-07-27T08:49:08.411Z,16
2017-07-27T08:50:09.246Z,20
2017-07-27T08:51:09.885Z,20
2017-07-27T08:52:10.519Z,20
2017-07-27T08:53:11.156Z,24
2017-07-27T08:54:11.796Z,24
2017-07-27T08:55:12.432Z,24
2017-07-27T08:56:13.066Z,20
2017-07-27T08:57:13.704Z,24
2017-07-27T08:58:14.488Z,24
2017-07-27T08:59:15.136Z,24
2017-07-27T09:00:15.766Z,24
2017-07-27T09:01:16.403Z,24
2017-07-27T09:02:17.044Z,24
2017-07-27T09:03:17.691Z,28
2017-07-27T09:04:18.334Z,24
2017-07-27T09:05:18.971Z,24
2017-07-27T09:06:19.854Z,24
2017-07-27T09:07:20.494Z,24
2017-07-27T09:08:21.131Z,28
2017-07-27T09:09:21.767Z,28
2017-07-27T09:10:22.402Z,24
2017-07-27T09:11:23.044Z,28
2017-07-27T09:12:23.677Z,28
2017-07-27T09:13:24.317Z,24
2017-07-27T09:14:25.207Z,24
2017-07-27T09:15:25.841Z,28
2017-07-27T09:16:26.483Z,24
2017-07-27T09:17:27.128Z,24
2017-07-27T09:18:27.757Z,24
2017-07-27T09:19:28.393Z,28
2017-07-27T09:20:29.027Z,24
2017-07-27T09:21:29.670Z,24
2017-07-27T09:22:30.563Z,28
2017-07-27T09:23:31.195Z,24
2017-07-27T09:24:31.836Z,28
2017-07-27T09:25:32.477Z,28
2017-07-27T09:26:33.115Z,28
2017-07-27T09:27:33.746Z,32
2017-07-27T09:28:34.387Z,32
2017-07-27T09:29:35.021Z,32
2017-07-27T09:30:35.663Z,32
2017-07-27T09:31:36.545Z,28
2017-07-27T09:32:37.184Z,28
2017-07-27T09:33:37.826Z,32
2017-07-27T09:34:38.459Z,32
2017-07-27T09:35:39.095Z,28
2017-07-27T09:36:39.737Z,28
2017-07-27T09:37:40.422Z,28
2017-07-27T09:38:41.058Z,32
2017-07-27T09:39:41.894Z,32
2017-07-27T09:40:42.543Z,32
2017-07-27T09:41:43.175Z,32
2017-07-27T09:42:43.816Z,28
2017-07-27T09:43:44.460Z,28
2017-07-27T09:44:45.096Z,32
2017-07-27T09:45:45.736Z,32
2017-07-27T09:46:46.370Z,32
2017-07-27T09:47:47.356Z,32
2017-07-27T09:48:47.997Z,36
2017-07-27T09:49:48.631Z,32
2017-07-27T09:50:49.267Z,32
2017-07-27T09:51:49.906Z,36
2017-07-27T09:52:50.547Z,28
2017-07-27T09:53:51.182Z,32
2017-07-27T09:54:51.817Z,36
2017-07-27T09:55:52.755Z,32
2017-07-27T09:56:53.396Z,32
2017-07-27T09:57:54.036Z,32
2017-07-27T09:58:54.669Z,32
2017-07-27T09:59:55.313Z,36
2017-07-27T10:00:55.947Z,36
2017-07-27T10:01:56.582Z,48
2017-07-27T10:02:57.218Z,36
2017-07-27T10:03:57.866Z,36
2017-07-27T10:04:58.698Z,40
2017-07-27T10:05:59.341Z,36
2017-07-27T10:06:59.985Z,40
2017-07-27T10:08:00.627Z,40
2017-07-27T10:09:01.264Z,40
2017-07-27T10:10:01.895Z,40
2017-07-27T10:11:02.532Z,40
2017-07-27T10:12:03.168Z,44
2017-07-27T10:13:04.005Z,44
2017-07-27T10:14:04.646Z,40
2017-07-27T10:15:05.287Z,40
2017-07-27T10:16:05.920Z,44
2017-07-27T10:17:06.570Z,44
2017-07-27T10:18:07.151Z,40
2017-07-27T10:19:07.787Z,44
2017-07-27T10:20:08.430Z,44
2017-07-27T10:21:09.318Z,40
2017-07-27T10:22:09.952Z,40
2017-07-27T10:23:10.588Z,40
2017-07-27T10:24:11.278Z,40
2017-07-27T10:25:11.919Z,40
2017-07-27T10:26:12.552Z,40
2017-07-27T10:27:13.190Z,40
2017-07-27T10:28:13.826Z,44
2017-07-27T10:29:14.669Z,44
2017-07-27T10:30:15.306Z,40
2017-07-27T10:31:15.944Z,44
2017-07-27T10:32:16.579Z,44
2017-07-27T10:33:17.214Z,40
2017-07-27T10:34:17.855Z,44
2017-07-27T10:35:18.494Z,40
2017-07-27T10:36:19.128Z,44
2017-07-27T10:37:20.015Z,44
2017-07-27T10:38:20.648Z,44
2017-07-27T10:39:21.297Z,48
2017-07-27T10:40:21.941Z,44
2017-07-27T10:41:22.569Z,44
2017-07-27T10:42:23.212Z,48
2017-07-27T10:43:23.851Z,44
2017-07-27T10:44:24.486Z,44
2017-07-27T10:45:25.121Z,44
2017-07-27T10:46:26.007Z,44
2017-07-27T10:47:26.601Z,44
2017-07-27T10:48:27.234Z,48
2017-07-27T10:49:27.870Z,44
2017-07-27T10:50:28.506Z,48
2017-07-27T10:51:29.141Z,48
2017-07-27T10:52:29.781Z,44
2017-07-27T10:53:30.421Z,48
2017-07-27T10:54:31.310Z,48
2017-07-27T10:55:31.950Z,44
2017-07-27T10:56:32.589Z,44
2017-07-27T10:57:33.227Z,48
2017-07-27T10:58:33.860Z,48
2017-07-27T10:59:34.504Z,44
2017-07-27T11:00:35.143Z,48
2017-07-27T11:01:35.780Z,44
2017-07-27T11:02:36.613Z,44
2017-07-27T11:03:37.248Z,48
2017-07-27T11:04:37.890Z,44
2017-07-27T11:05:38.521Z,52
2017-07-27T11:06:39.159Z,44
2017-07-27T11:07:39.795Z,48
2017-07-27T11:08:40.431Z,44
2017-07-27T11:09:41.069Z,44
2017-07-27T11:10:42.009Z,48
2017-07-27T11:11:42.644Z,44
2017-07-27T11:12:43.283Z,48
2017-07-27T11:13:43.919Z,48
2017-07-27T11:14:44.563Z,44
2017-07-27T11:15:45.195Z,44
2017-07-27T11:16:45.831Z,44
2017-07-27T11:17:46.473Z,44
2017-07-27T11:18:47.113Z,44
2017-07-27T11:19:48.158Z,44
2017-07-27T11:20:48.788Z,44
2017-07-27T11:21:49.429Z,44
2017-07-27T11:22:50.074Z,52
2017-07-27T11:23:50.711Z,48
2017-07-27T11:24:51.343Z,48
2017-07-27T11:25:51.982Z,44
2017-07-27T11:26:52.618Z,48
2017-07-27T11:27:53.510Z,48
2017-07-27T11:28:54.149Z,48
2017-07-27T11:29:54.783Z,48
2017-07-27T11:30:55.420Z,48
2017-07-27T11:31:56.055Z,48
2017-07-27T11:32:56.693Z,48
2017-07-27T11:33:57.330Z,48
2017-07-27T11:34:57.965Z,48
2017-07-27T11:35:58.802Z,52
2017-07-27T11:36:59.438Z,52
2017-07-27T11:38:00.081Z,52
2017-07-27T11:39:00.721Z,56
2017-07-27T11:40:01.362Z,60
2017-07-27T11:41:02.000Z,52
2017-07-27T11:42:02.639Z,52
2017-07-27T11:43:03.272Z,48
2017-07-27T11:44:04.272Z,56
2017-07-27T11:45:04.913Z,56
2017-07-27T11:46:05.547Z,52
2017-07-27T11:47:06.187Z,48
2017-07-27T11:48:06.826Z,56
2017-07-27T11:49:07.460Z,60
2017-07-27T11:50:08.104Z,52
2017-07-27T11:51:08.738Z,56
2017-07-27T11:52:09.624Z,60
2017-07-27T11:53:10.267Z,52
2017-07-27T11:54:10.912Z,52
2017-07-27T11:55:11.547Z,52
2017-07-27T11:56:12.179Z,52
2017-07-27T11:57:12.826Z,56
2017-07-27T11:58:13.468Z,52
2017-07-27T11:59:14.106Z,52
2017-07-27T12:00:14.741Z,60
2017-07-27T12:01:15.577Z,56
2017-07-27T12:02:16.221Z,56
2017-07-27T12:03:16.855Z,64
2017-07-27T12:04:17.502Z,68
2017-07-27T12:05:18.139Z,52
2017-07-27T12:06:18.778Z,52
2017-07-27T12:07:19.412Z,56
2017-07-27T12:08:20.048Z,56
2017-07-27T12:09:20.839Z,56
2017-07-27T12:10:21.471Z,56
2017-07-27T12:11:22.108Z,60
2017-07-27T12:12:22.745Z,56
2017-07-27T12:13:23.338Z,56
2017-07-27T12:14:23.972Z,56
2017-07-27T12:15:24.610Z,56
2017-07-27T12:16:25.245Z,56
2017-07-27T12:17:26.089Z,56
2017-07-27T12:18:26.728Z,56
2017-07-27T12:19:27.363Z,60
2017-07-27T12:20:28.000Z,56
2017-07-27T12:21:28.636Z,60
2017-07-27T12:22:29.278Z,60
2017-07-27T12:23:29.913Z,56
2017-07-27T12:24:30.551Z,56
2017-07-27T12:25:31.444Z,60
2017-07-27T12:26:32.084Z,64
2017-07-27T12:27:32.675Z,68
2017-07-27T12:28:33.310Z,60
2017-07-27T12:29:33.948Z,60
2017-07-27T12:30:34.635Z,56
2017-07-27T12:31:35.280Z,56
2017-07-27T12:32:35.967Z,52
2017-07-27T12:33:36.657Z,60
2017-07-27T12:34:37.544Z,60
2017-07-27T12:35:38.181Z,56
2017-07-27T12:36:38.817Z,60
2017-07-27T12:37:39.456Z,60
2017-07-27T12:38:40.099Z,56
2017-07-27T12:39:40.737Z,60
2017-07-27T12:40:41.374Z,60
2017-07-27T12:41:42.017Z,64
2017-07-27T12:42:42.952Z,64
2017-07-27T12:43:43.590Z,72
2017-07-27T12:44:44.225Z,68
2017-07-27T12:45:44.865Z,64
2017-07-27T12:46:45.500Z,60
2017-07-27T12:47:46.137Z,68
2017-07-27T12:48:46.779Z,64
2017-07-27T12:49:47.418Z,64
2017-07-27T12:50:48.309Z,68
2017-07-27T12:51:48.893Z,64
2017-07-27T12:52:49.529Z,68
2017-07-27T12:53:50.167Z,60
2017-07-27T12:54:50.810Z,60
2017-07-27T12:55:51.442Z,72
2017-07-27T12:56:52.080Z,52
2017-07-27T12:57:52.717Z,52
2017-07-27T12:58:53.661Z,48
2017-07-27T12:59:54.299Z,68
2017-07-27T13:00:54.939Z,56
2017-07-27T13:01:55.579Z,68
2017-07-27T13:02:56.221Z,68
2017-07-27T13:03:56.915Z,68
2017-07-27T13:04:57.556Z,68
2017-07-27T13:05:58.190Z,64
2017-07-27T13:06:59.027Z,68
2017-07-27T13:07:59.677Z,64
2017-07-27T13:09:00.311Z,64
2017-07-27T13:10:00.951Z,60
2017-07-27T13:11:01.585Z,68
2017-07-27T13:12:02.229Z,60
2017-07-27T13:13:02.869Z,64
2017-07-27T13:14:03.502Z,64
2017-07-27T13:15:04.140Z,64
2017-07-27T13:16:05.179Z,60
2017-07-27T13:17:05.817Z,68
2017-07-27T13:18:06.456Z,68
2017-07-27T13:19:07.092Z,68
2017-07-27T13:20:07.728Z,64
2017-07-27T13:21:08.365Z,56
2017-07-27T13:22:09.010Z,60
2017-07-27T13:23:09.642Z,56
2017-07-27T13:24:10.481Z,60
2017-07-27T13:25:11.126Z,72
2017-07-27T13:26:11.759Z,72
2017-07-27T13:27:12.401Z,72
2017-07-27T13:28:13.034Z,52
2017-07-27T13:29:13.672Z,76
2017-07-27T13:30:14.315Z,56
2017-07-27T13:31:14.952Z,80
2017-07-27T13:32:15.792Z,68
2017-07-27T13:33:16.427Z,60
2017-07-27T13:34:17.064Z,68
2017-07-27T13:35:17.699Z,72
2017-07-27T13:36:18.389Z,92
2017-07-27T13:37:19.034Z,48
2017-07-27T13:38:19.666Z,88
2017-07-27T13:39:20.304Z,48
2017-07-27T13:40:21.197Z,68
2017-07-27T13:41:21.838Z,60
2017-07-27T13:42:22.471Z,76
2017-07-27T13:43:23.109Z,84
2017-07-27T13:44:23.748Z,68
2017-07-27T13:45:24.391Z,80
2017-07-27T13:46:25.025Z,92
2017-07-27T13:47:25.662Z,84
2017-07-27T13:48:26.305Z,44
2017-07-27T13:49:26.990Z,64
2017-07-27T13:50:27.684Z,76
2017-07-27T13:51:28.326Z,72
2017-07-27T13:52:28.960Z,68
2017-07-27T13:53:29.602Z,68
2017-07-27T13:54:30.251Z,72
2017-07-27T13:55:30.889Z,72
2017-07-27T13:56:31.822Z,72
2017-07-27T13:57:32.466Z,68
2017-07-27T13:58:33.104Z,68
2017-07-27T13:59:33.743Z,64
2017-07-27T14:00:34.379Z,64
2017-07-27T14:01:35.018Z,64
2017-07-27T14:02:35.661Z,68
2017-07-27T14:03:36.301Z,68
2017-07-27T14:04:37.186Z,64
2017-07-27T14:05:37.828Z,68
2017-07-27T14:06:38.460Z,72
2017-07-27T14:07:39.103Z,68
2017-07-27T14:08:39.800Z,64
2017-07-27T14:09:40.433Z,68
2017-07-27T14:10:41.077Z,68
2017-07-27T14:11:41.709Z,72
2017-07-27T14:12:42.553Z,68
2017-07-27T14:13:43.196Z,64
2017-07-27T14:14:43.834Z,68
2017-07-27T14:15:44.473Z,68
2017-07-27T14:16:45.114Z,68
2017-07-27T14:17:45.753Z,68
2017-07-27T14:18:46.389Z,68
2017-07-27T14:19:47.024Z,68
2017-07-27T14:20:47.913Z,68
2017-07-27T14:21:48.552Z,68
2017-07-27T14:22:49.188Z,68
2017-07-27T14:23:49.829Z,68
2017-07-27T14:24:50.465Z,68
2017-07-27T14:25:51.109Z,68
2017-07-27T14:26:51.742Z,68
2017-07-27T14:27:52.385Z,68
2017-07-27T14:28:53.269Z,68
2017-07-27T14:29:53.910Z,68
2017-07-27T14:30:54.557Z,72
2017-07-27T14:31:55.192Z,68
2017-07-27T14:32:55.825Z,68
2017-07-27T14:33:56.476Z,68
2017-07-27T14:34:57.159Z,68
2017-07-27T14:35:57.798Z,72
2017-07-27T14:36:58.433Z,72
2017-07-27T14:37:59.320Z,72
2017-07-27T14:38:59.965Z,72
2017-07-27T14:40:00.605Z,72
2017-07-27T14:41:01.241Z,68
2017-07-27T14:42:01.880Z,72
2017-07-27T14:43:02.521Z,72